< < Back
Terminal Aerodrome Forecast


Current Version              Previous Versions:   1  2  3  4  5  6  7  8  9  

Terminal Aerodrome Forecast

405
FTUS42 KFFC 291739
TAFMCN
TAF
KMCN 291739Z 2918/3018 VRB04KT P6SM SCT250
     FM292000 24006KT P6SM FEW080
     FM300100 19003KT P6SM FEW250
     FM301000 15003KT P6SM SCT250
     FM301500 19006KT P6SM BKN035=



Latest METAR

681
SAUS80 KWBC 300300 RRA
MTRMCN
METAR KMCN 300253Z AUTO 00000KT 10SM CLR 20/18 A2997 RMK AO2 SLP144
T02000183 53012 TSNO


USA.gov is the U.S. government's official web portal to all federal, state and local government web resources and services.